sensor_id;sensor_type;location;lat;lon;timestamp;pressure;altitude;pressure_sealevel;temperature;humidity
24746;BME280;12845;52.042;6.838;2022-11-20T00:01:18;66367.72;;;-3.76;100.00
24746;BME280;12845;52.042;6.838;2022-11-20T00:03:45;66361.53;;;-3.81;100.00
24746;BME280;12845;52.042;6.838;2022-11-20T00:06:12;66367.88;;;-3.80;100.00
24746;BME280;12845;52.042;6.838;2022-11-20T00:08:38;66367.88;;;-3.80;100.00
24746;BME280;12845;52.042;6.838;2022-11-20T00:13:29;66359.47;;;-3.88;100.00
24746;BME280;12845;52.042;6.838;2022-11-20T00:15:58;66361.34;;;-3.84;100.00
24746;BME280;12845;52.042;6.838;2022-11-20T00:18:25;66358.91;;;-3.89;100.00
24746;BME280;12845;52.042;6.838;2022-11-20T00:20:50;66354.41;;;-3.93;100.00
24746;BME280;12845;52.042;6.838;2022-11-20T00:23:15;66347.16;;;-3.99;100.00
24746;BME280;12845;52.042;6.838;2022-11-20T00:25:41;66353.31;;;-3.94;100.00
24746;BME280;12845;52.042;6.838;2022-11-20T00:28:06;66358.50;;;-3.94;100.00
24746;BME280;12845;52.042;6.838;2022-11-20T00:30:31;66346.78;;;-3.97;100.00
24746;BME280;12845;52.042;6.838;2022-11-20T00:32:57;66349.56;;;-3.95;100.00
24746;BME280;12845;52.042;6.838;2022-11-20T00:35:23;66345.09;;;-3.99;100.00
24746;BME280;12845;52.042;6.838;2022-11-20T00:37:48;66346.59;;;-4.00;100.00
24746;BME280;12845;52.042;6.838;2022-11-20T00:40:13;66338.34;;;-4.12;100.00
24746;BME280;12845;52.042;6.838;2022-11-20T00:42:39;66327.19;;;-4.15;100.00
24746;BME280;12845;52.042;6.838;2022-11-20T00:45:05;66325.84;;;-4.19;100.00
24746;BME280;12845;52.042;6.838;2022-11-20T00:47:32;66326.97;;;-4.18;100.00
24746;BME280;12845;52.042;6.838;2022-11-20T00:49:57;66309.25;;;-4.32;100.00
24746;BME280;12845;52.042;6.838;2022-11-20T00:52:22;66307.94;;;-4.35;100.00
24746;BME280;12845;52.042;6.838;2022-11-20T00:54:48;66309.81;;;-4.31;100.00
24746;BME280;12845;52.042;6.838;2022-11-20T00:57:13;66315.22;;;-4.28;100.00
24746;BME280;12845;52.042;6.838;2022-11-20T00:59:38;66312.97;;;-4.31;100.00
24746;BME280;12845;52.042;6.838;2022-11-20T01:02:04;66307.94;;;-4.35;100.00
24746;BME280;12845;52.042;6.838;2022-11-20T01:04:29;66307.38;;;-4.36;100.00
24746;BME280;12845;52.042;6.838;2022-11-20T01:06:54;66313.88;;;-4.32;100.00
24746;BME280;12845;52.042;6.838;2022-11-20T01:09:20;66312.63;;;-4.28;100.00
24746;BME280;12845;52.042;6.838;2022-11-20T01:11:45;66305.34;;;-4.35;100.00
24746;BME280;12845;52.042;6.838;2022-11-20T01:14:17;66296.38;;;-4.43;100.00
24746;BME280;12845;52.042;6.838;2022-11-20T01:16:50;66299.56;;;-4.43;100.00
24746;BME280;12845;52.042;6.838;2022-11-20T01:19:23;66299.72;;;-4.40;100.00
24746;BME280;12845;52.042;6.838;2022-11-20T01:21:50;66304.78;;;-4.36;100.00
24746;BME280;12845;52.042;6.838;2022-11-20T01:24:18;66313.69;;;-4.35;100.00
24746;BME280;12845;52.042;6.838;2022-11-20T01:26:45;66301.97;;;-4.38;100.00
24746;BME280;12845;52.042;6.838;2022-11-20T01:29:15;66308.50;;;-4.35;100.00
24746;BME280;12845;52.042;6.838;2022-11-20T01:31:41;66309.78;;;-4.38;100.00
24746;BME280;12845;52.042;6.838;2022-11-20T01:34:10;66284.63;;;-4.54;100.00
24746;BME280;12845;52.042;6.838;2022-11-20T01:36:36;66293.38;;;-4.48;100.00
24746;BME280;12845;52.042;6.838;2022-11-20T01:39:10;66292.81;;;-4.49;100.00
24746;BME280;12845;52.042;6.838;2022-11-20T01:41:36;66293.94;;;-4.48;100.00
24746;BME280;12845;52.042;6.838;2022-11-20T01:44:39;66281.28;;;-4.57;100.00
24746;BME280;12845;52.042;6.838;2022-11-20T01:47:07;66285.19;;;-4.54;100.00
24746;BME280;12845;52.042;6.838;2022-11-20T01:49:40;66278.47;;;-4.60;100.00
24746;BME280;12845;52.042;6.838;2022-11-20T01:52:14;66271.75;;;-4.66;100.00
24746;BME280;12845;52.042;6.838;2022-11-20T01:54:49;66276.03;;;-4.64;100.00
24746;BME280;12845;52.042;6.838;2022-11-20T01:57:18;66275.69;;;-4.62;100.00
24746;BME280;12845;52.042;6.838;2022-11-20T01:59:51;66278.28;;;-4.62;100.00
24746;BME280;12845;52.042;6.838;2022-11-20T02:02:20;66281.63;;;-4.59;100.00
24746;BME280;12845;52.042;6.838;2022-11-20T02:04:47;66278.63;;;-4.64;100.00
24746;BME280;12845;52.042;6.838;2022-11-20T02:07:13;66264.13;;;-4.70;100.00
24746;BME280;12845;52.042;6.838;2022-11-20T02:09:39;66264.13;;;-4.70;100.00
24746;BME280;12845;52.042;6.838;2022-11-20T02:12:05;66255.50;;;-4.81;100.00
24746;BME280;12845;52.042;6.838;2022-11-20T02:14:30;66264.84;;;-4.74;100.00
24746;BME280;12845;52.042;6.838;2022-11-20T02:16:56;66260.75;;;-4.73;100.00
24746;BME280;12845;52.042;6.838;2022-11-20T02:19:27;66256.84;;;-4.77;100.00
24746;BME280;12845;52.042;6.838;2022-11-20T02:22:06;66258.88;;;-4.78;100.00
24746;BME280;12845;52.042;6.838;2022-11-20T02:24:33;66260.91;;;-4.78;100.00
24746;BME280;12845;52.042;6.838;2022-11-20T02:27:05;66260.16;;;-4.81;100.00
24746;BME280;12845;52.042;6.838;2022-11-20T02:32:34;66246.94;;;-4.91;100.00
24746;BME280;12845;52.042;6.838;2022-11-20T02:37:56;66246.94;;;-4.91;100.00
24746;BME280;12845;52.042;6.838;2022-11-20T02:40:23;66247.28;;;-4.93;100.00
24746;BME280;12845;52.042;6.838;2022-11-20T02:42:52;66246.38;;;-4.91;100.00
24746;BME280;12845;52.042;6.838;2022-11-20T02:45:18;66245.25;;;-4.92;100.00
24746;BME280;12845;52.042;6.838;2022-11-20T02:47:43;66243.22;;;-4.92;100.00
24746;BME280;12845;52.042;6.838;2022-11-20T02:50:09;66245.25;;;-4.92;100.00
24746;BME280;12845;52.042;6.838;2022-11-20T02:52:34;66245.03;;;-4.95;100.00
24746;BME280;12845;52.042;6.838;2022-11-20T02:54:59;66235.94;;;-4.99;100.00
24746;BME280;12845;52.042;6.838;2022-11-20T02:57:25;66231.81;;;-5.05;100.00
24746;BME280;12845;52.042;6.838;2022-11-20T02:59:51;66229.78;;;-5.04;100.00
24746;BME280;12845;52.042;6.838;2022-11-20T03:02:16;66234.63;;;-5.02;100.00
24746;BME280;12845;52.042;6.838;2022-11-20T03:04:42;66236.88;;;-5.00;100.00
24746;BME280;12845;52.042;6.838;2022-11-20T03:07:08;66242.44;;;-4.95;100.00
24746;BME280;12845;52.042;6.838;2022-11-20T03:09:33;66235.72;;;-5.01;100.00
24746;BME280;12845;52.042;6.838;2022-11-20T03:11:59;66230.16;;;-5.06;100.00
24746;BME280;12845;52.042;6.838;2022-11-20T03:14:24;66223.81;;;-5.07;100.00
24746;BME280;12845;52.042;6.838;2022-11-20T03:16:49;66226.22;;;-5.10;100.00
24746;BME280;12845;52.042;6.838;2022-11-20T03:19:15;66218.59;;;-5.14;100.00
24746;BME280;12845;52.042;6.838;2022-11-20T03:21:40;66218.94;;;-5.16;100.00
24746;BME280;12845;52.042;6.838;2022-11-20T03:24:06;66214.47;;;-5.20;100.00
24746;BME280;12845;52.042;6.838;2022-11-20T03:26:32;66215.59;;;-5.19;100.00
24746;BME280;12845;52.042;6.838;2022-11-20T03:28:59;66213.00;;;-5.19;100.00
24746;BME280;12845;52.042;6.838;2022-11-20T03:31:28;66216.72;;;-5.18;100.00
24746;BME280;12845;52.042;6.838;2022-11-20T03:33:55;66219.50;;;-5.16;100.00
24746;BME280;12845;52.042;6.838;2022-11-20T03:36:20;66213.00;;;-5.19;100.00
24746;BME280;12845;52.042;6.838;2022-11-20T03:38:46;66203.28;;;-5.31;100.00
24746;BME280;12845;52.042;6.838;2022-11-20T03:41:15;66204.03;;;-5.28;100.00
24746;BME280;12845;52.042;6.838;2022-11-20T03:43:41;66216.31;;;-5.24;100.00
24746;BME280;12845;52.042;6.838;2022-11-20T03:46:07;66205.53;;;-5.29;100.00
24746;BME280;12845;52.042;6.838;2022-11-20T03:48:33;66210.34;;;-5.27;100.00
24746;BME280;12845;52.042;6.838;2022-11-20T03:51:10;66194.34;;;-5.39;100.00
24746;BME280;12845;52.042;6.838;2022-11-20T03:53:36;66196.38;;;-5.39;100.00
24746;BME280;12845;52.042;6.838;2022-11-20T03:58:26;66198.44;;;-5.33;100.00
24746;BME280;12845;52.042;6.838;2022-11-20T04:00:52;66202.19;;;-5.32;100.00
24746;BME280;12845;52.042;6.838;2022-11-20T04:03:17;66207.38;;;-5.32;100.00
24746;BME280;12845;52.042;6.838;2022-11-20T04:05:42;66189.50;;;-5.41;100.00
24746;BME280;12845;52.042;6.838;2022-11-20T04:08:08;66178.88;;;-5.51;100.00
24746;BME280;12845;52.042;6.838;2022-11-20T04:10:34;66192.81;;;-5.45;100.00
24746;BME280;12845;52.042;6.838;2022-11-20T04:12:59;66188.72;;;-5.44;100.00
24746;BME280;12845;52.042;6.838;2022-11-20T04:15:24;66179.81;;;-5.52;100.00
24746;BME280;12845;52.042;6.838;2022-11-20T04:17:50;66178.13;;;-5.54;100.00
24746;BME280;12845;52.042;6.838;2022-11-20T04:20:15;66180.91;;;-5.51;100.00
24746;BME280;12845;52.042;6.838;2022-11-20T04:22:41;66182.59;;;-5.50;100.00
24746;BME280;12845;52.042;6.838;2022-11-20T04:25:06;66187.97;;;-5.47;100.00
24746;BME280;12845;52.042;6.838;2022-11-20T04:27:32;66171.06;;;-5.58;100.00
24746;BME280;12845;52.042;6.838;2022-11-20T04:29:57;66175.31;;;-5.56;100.00
24746;BME280;12845;52.042;6.838;2022-11-20T04:32:22;66183.16;;;-5.49;100.00
24746;BME280;12845;52.042;6.838;2022-11-20T04:34:48;66174.97;;;-5.54;100.00
24746;BME280;12845;52.042;6.838;2022-11-20T04:37:13;66181.25;;;-5.53;100.00
24746;BME280;12845;52.042;6.838;2022-11-20T04:39:38;66179.22;;;-5.53;100.00
24746;BME280;12845;52.042;6.838;2022-11-20T04:42:04;66177.78;;;-5.52;100.00
24746;BME280;12845;52.042;6.838;2022-11-20T04:44:48;66183.38;;;-5.47;100.00
24746;BME280;12845;52.042;6.838;2022-11-20T04:47:13;66179.22;;;-5.53;100.00
24746;BME280;12845;52.042;6.838;2022-11-20T04:49:38;66184.28;;;-5.48;100.00
24746;BME280;12845;52.042;6.838;2022-11-20T04:52:04;66167.84;;;-5.65;100.00
24746;BME280;12845;52.042;6.838;2022-11-20T04:54:29;66159.66;;;-5.71;100.00
24746;BME280;12845;52.042;6.838;2022-11-20T04:56:54;66154.81;;;-5.73;100.00
24746;BME280;12845;52.042;6.838;2022-11-20T04:59:20;66163.56;;;-5.67;100.00
24746;BME280;12845;52.042;6.838;2022-11-20T05:01:45;66164.34;;;-5.64;100.00
24746;BME280;12845;52.042;6.838;2022-11-20T05:04:10;66163.94;;;-5.69;100.00
24746;BME280;12845;52.042;6.838;2022-11-20T05:06:36;66171.56;;;-5.64;100.00
24746;BME280;12845;52.042;6.838;2022-11-20T05:09:01;66155.97;;;-5.72;100.00
24746;BME280;12845;52.042;6.838;2022-11-20T05:11:27;66152.81;;;-5.72;100.00
24746;BME280;12845;52.042;6.838;2022-11-20T05:13:54;66158.75;;;-5.69;100.00
24746;BME280;12845;52.042;6.838;2022-11-20T05:16:22;66160.78;;;-5.70;100.00
24746;BME280;12845;52.042;6.838;2022-11-20T05:18:49;66151.47;;;-5.76;100.00
24746;BME280;12845;52.042;6.838;2022-11-20T05:21:15;66153.50;;;-5.76;100.00
24746;BME280;12845;52.042;6.838;2022-11-20T05:23:41;66158.00;;;-5.72;100.00
24746;BME280;12845;52.042;6.838;2022-11-20T05:26:11;66156.50;;;-5.71;100.00
24746;BME280;12845;52.042;6.838;2022-11-20T05:28:37;66153.84;;;-5.78;100.00
24746;BME280;12845;52.042;6.838;2022-11-20T05:33:32;66151.69;;;-5.73;100.00
24746;BME280;12845;52.042;6.838;2022-11-20T05:35:58;66156.31;;;-5.74;100.00
24746;BME280;12845;52.042;6.838;2022-11-20T05:38:23;66149.03;;;-5.80;100.00
24746;BME280;12845;52.042;6.838;2022-11-20T05:40:49;66151.84;;;-5.78;100.00
24746;BME280;12845;52.042;6.838;2022-11-20T05:43:14;66152.41;;;-5.77;100.00
24746;BME280;12845;52.042;6.838;2022-11-20T05:45:39;66147.91;;;-5.81;100.00
24746;BME280;12845;52.042;6.838;2022-11-20T05:48:05;66155.53;;;-5.77;100.00
24746;BME280;12845;52.042;6.838;2022-11-20T05:50:30;66150.38;;;-5.77;100.00
24746;BME280;12845;52.042;6.838;2022-11-20T05:52:58;66151.47;;;-5.76;100.00
24746;BME280;12845;52.042;6.838;2022-11-20T05:55:24;66136.94;;;-5.89;100.00
24746;BME280;12845;52.042;6.838;2022-11-20T05:57:50;66141.41;;;-5.85;100.00
24746;BME280;12845;52.042;6.838;2022-11-20T06:00:15;66139.53;;;-5.89;100.00
24746;BME280;12845;52.042;6.838;2022-11-20T06:02:41;66141.75;;;-5.87;100.00
24746;BME280;12845;52.042;6.838;2022-11-20T06:05:06;66137.28;;;-5.91;100.00
24746;BME280;12845;52.042;6.838;2022-11-20T06:07:32;66135.47;;;-5.88;100.00
24746;BME280;12845;52.042;6.838;2022-11-20T06:09:57;66147.72;;;-5.84;100.00
24746;BME280;12845;52.042;6.838;2022-11-20T06:12:22;66140.09;;;-5.88;100.00
24746;BME280;12845;52.042;6.838;2022-11-20T06:14:48;66136.00;;;-5.95;100.00
24746;BME280;12845;52.042;6.838;2022-11-20T06:17:13;66127.25;;;-6.00;100.00
24746;BME280;12845;52.042;6.838;2022-11-20T06:19:38;66120.56;;;-6.06;100.00
24746;BME280;12845;52.042;6.838;2022-11-20T06:22:04;66122.38;;;-6.09;100.00
24746;BME280;12845;52.042;6.838;2022-11-20T06:24:29;66121.88;;;-6.03;100.00
24746;BME280;12845;52.042;6.838;2022-11-20T06:26:54;66120.19;;;-6.04;100.00
24746;BME280;12845;52.042;6.838;2022-11-20T06:29:20;66122.44;;;-6.02;100.00
24746;BME280;12845;52.042;6.838;2022-11-20T06:31:45;66128.72;;;-6.01;100.00
24746;BME280;12845;52.042;6.838;2022-11-20T06:34:10;66132.44;;;-6.00;100.00
24746;BME280;12845;52.042;6.838;2022-11-20T06:36:36;66124.88;;;-5.98;100.00
24746;BME280;12845;52.042;6.838;2022-11-20T06:39:02;66132.09;;;-5.98;100.00
24746;BME280;12845;52.042;6.838;2022-11-20T06:41:27;66126.91;;;-5.98;100.00
24746;BME280;12845;52.042;6.838;2022-11-20T06:43:53;66130.19;;;-6.02;100.00
24746;BME280;12845;52.042;6.838;2022-11-20T06:46:19;66122.78;;;-6.04;100.00
24746;BME280;12845;52.042;6.838;2022-11-20T06:48:46;66133.19;;;-5.97;100.00
24746;BME280;12845;52.042;6.838;2022-11-20T06:51:12;66130.06;;;-5.98;100.00
24746;BME280;12845;52.042;6.838;2022-11-20T06:53:37;66128.38;;;-5.99;100.00
24746;BME280;12845;52.042;6.838;2022-11-20T06:56:06;66132.66;;;-5.98;100.00
24746;BME280;12845;52.042;6.838;2022-11-20T06:58:33;66125.00;;;-6.02;100.00
24746;BME280;12845;52.042;6.838;2022-11-20T07:01:03;66124.47;;;-6.03;100.00
24746;BME280;12845;52.042;6.838;2022-11-20T07:03:29;66133.56;;;-5.99;100.00
24746;BME280;12845;52.042;6.838;2022-11-20T07:05:55;66134.69;;;-5.98;100.00
24746;BME280;12845;52.042;6.838;2022-11-20T07:08:21;66132.28;;;-5.96;100.00
24746;BME280;12845;52.042;6.838;2022-11-20T07:10:47;66124.66;;;-6.00;100.00
24746;BME280;12845;52.042;6.838;2022-11-20T07:13:12;66138.59;;;-5.95;100.00
24746;BME280;12845;52.042;6.838;2022-11-20T07:15:38;66129.50;;;-5.98;100.00
24746;BME280;12845;52.042;6.838;2022-11-20T07:18:03;66130.06;;;-5.98;100.00
24746;BME280;12845;52.042;6.838;2022-11-20T07:20:29;66125.78;;;-5.99;100.00
24746;BME280;12845;52.042;6.838;2022-11-20T07:22:55;66142.47;;;-5.91;100.00
24746;BME280;12845;52.042;6.838;2022-11-20T07:25:22;66142.91;;;-5.86;100.00
24746;BME280;12845;52.042;6.838;2022-11-20T07:27:47;66141.75;;;-5.87;100.00
24746;BME280;12845;52.042;6.838;2022-11-20T07:30:13;66159.31;;;-5.69;100.00
24746;BME280;12845;52.042;6.838;2022-11-20T07:32:39;66168.59;;;-5.62;100.00
24746;BME280;12845;52.042;6.838;2022-11-20T07:35:04;66164.16;;;-5.67;100.00
24746;BME280;12845;52.042;6.838;2022-11-20T07:37:30;66164.69;;;-5.66;100.00
24746;BME280;12845;52.042;6.838;2022-11-20T07:39:55;66171.06;;;-5.58;100.00
24746;BME280;12845;52.042;6.838;2022-11-20T07:42:20;66179.81;;;-5.52;100.00
24746;BME280;12845;52.042;6.838;2022-11-20T07:44:46;66189.31;;;-5.43;100.00
24746;BME280;12845;52.042;6.838;2022-11-20T07:47:14;66205.16;;;-5.27;100.00
24746;BME280;12845;52.042;6.838;2022-11-20T07:49:39;66225.63;;;-5.17;100.00
24746;BME280;12845;52.042;6.838;2022-11-20T07:52:04;66232.38;;;-5.04;100.00
24746;BME280;12845;52.042;6.838;2022-11-20T07:54:30;66234.63;;;-5.02;100.00
24746;BME280;12845;52.042;6.838;2022-11-20T07:56:55;66242.44;;;-4.95;100.00
24746;BME280;12845;52.042;6.838;2022-11-20T07:59:20;66246.94;;;-4.91;100.00
24746;BME280;12845;52.042;6.838;2022-11-20T08:01:46;66246.00;;;-4.89;100.00
24746;BME280;12845;52.042;6.838;2022-11-20T08:04:11;66255.88;;;-4.83;100.00
24746;BME280;12845;52.042;6.838;2022-11-20T08:06:36;66266.16;;;-4.71;100.00
24746;BME280;12845;52.042;6.838;2022-11-20T08:09:02;66265.59;;;-4.71;100.00
24746;BME280;12845;52.042;6.838;2022-11-20T08:11:28;66278.06;;;-4.65;100.00
24746;BME280;12845;52.042;6.838;2022-11-20T08:14:12;66288.00;;;-4.51;100.00
24746;BME280;12845;52.042;6.838;2022-11-20T08:16:41;66301.56;;;-4.43;100.00
24746;BME280;12845;52.042;6.838;2022-11-20T08:19:07;66312.22;;;-4.34;100.00
24746;BME280;12845;52.042;6.838;2022-11-20T08:21:33;66319.16;;;-4.25;100.00
24746;BME280;12845;52.042;6.838;2022-11-20T08:23:59;66328.66;;;-4.16;100.00
24746;BME280;12845;52.042;6.838;2022-11-20T08:26:25;66339.84;;;-4.06;100.00
24746;BME280;12845;52.042;6.838;2022-11-20T08:28:54;66336.13;;;-4.07;100.00
24746;BME280;12845;52.042;6.838;2022-11-20T08:31:20;66348.25;;;-3.98;100.00
24746;BME280;12845;52.042;6.838;2022-11-20T08:33:45;66350.91;;;-3.91;100.00
24746;BME280;12845;52.042;6.838;2022-11-20T08:36:11;66372.34;;;-3.76;100.00
24746;BME280;12845;52.042;6.838;2022-11-20T08:38:36;66383.56;;;-3.66;100.00
24746;BME280;12845;52.042;6.838;2022-11-20T08:41:03;66384.88;;;-3.63;100.00
24746;BME280;12845;52.042;6.838;2022-11-20T08:43:47;66397.56;;;-3.53;100.00
24746;BME280;12845;52.042;6.838;2022-11-20T08:46:13;66401.34;;;-3.45;100.00
24746;BME280;12845;52.042;6.838;2022-11-20T08:48:38;66412.31;;;-3.37;100.00
24746;BME280;12845;52.042;6.838;2022-11-20T08:51:04;66422.63;;;-3.26;100.00
24746;BME280;12845;52.042;6.838;2022-11-20T08:53:29;66438.31;;;-3.11;100.00
24746;BME280;12845;52.042;6.838;2022-11-20T08:55:56;66450.44;;;-3.03;100.00
24746;BME280;12845;52.042;6.838;2022-11-20T08:58:21;66454.56;;;-2.97;100.00
24746;BME280;12845;52.042;6.838;2022-11-20T09:00:47;66469.31;;;-2.88;100.00
24746;BME280;12845;52.042;6.838;2022-11-20T09:03:12;66475.88;;;-2.77;100.00
24746;BME280;12845;52.042;6.838;2022-11-20T09:05:38;66490.81;;;-2.66;100.00
24746;BME280;12845;52.042;6.838;2022-11-20T09:08:04;66499.78;;;-2.58;100.00
24746;BME280;12845;52.042;6.838;2022-11-20T09:10:30;66511.00;;;-2.47;100.00
24746;BME280;12845;52.042;6.838;2022-11-20T09:12:56;66524.09;;;-2.33;100.00
24746;BME280;12845;52.042;6.838;2022-11-20T09:15:21;66546.72;;;-2.17;100.00
24746;BME280;12845;52.042;6.838;2022-11-20T09:17:59;66552.53;;;-2.10;100.00
24746;BME280;12845;52.042;6.838;2022-11-20T09:20:26;66551.38;;;-2.11;100.00
24746;BME280;12845;52.042;6.838;2022-11-20T09:22:52;66561.31;;;-2.04;100.00
24746;BME280;12845;52.042;6.838;2022-11-20T09:25:17;66577.59;;;-1.89;100.00
24746;BME280;12845;52.042;6.838;2022-11-20T09:27:43;66592.56;;;-1.71;100.00
24746;BME280;12845;52.042;6.838;2022-11-20T09:30:09;66597.06;;;-1.67;100.00
24746;BME280;12845;52.042;6.838;2022-11-20T09:32:35;66603.78;;;-1.61;100.00
24746;BME280;12845;52.042;6.838;2022-11-20T09:35:01;66617.25;;;-1.48;100.00
24746;BME280;12845;52.042;6.838;2022-11-20T09:37:26;66624.56;;;-1.42;100.00
24746;BME280;12845;52.042;6.838;2022-11-20T09:39:51;66634.47;;;-1.35;100.00
24746;BME280;12845;52.042;6.838;2022-11-20T09:42:39;66648.88;;;-1.24;100.00
24746;BME280;12845;52.042;6.838;2022-11-20T09:54:20;66692.88;;;-0.82;100.00
24746;BME280;12845;52.042;6.838;2022-11-20T09:56:25;66702.63;;;-0.71;100.00
24746;BME280;12845;52.042;6.838;2022-11-20T09:58:52;66713.28;;;-0.61;100.00
24746;BME280;12845;52.042;6.838;2022-11-20T10:01:21;66726.78;;;-0.49;100.00
24746;BME280;12845;52.042;6.838;2022-11-20T10:06:26;66761.63;;;-0.17;99.48
24746;BME280;12845;52.042;6.838;2022-11-20T10:11:53;66777.19;;;-0.05;98.32
24746;BME280;12845;52.042;6.838;2022-11-20T10:22:55;66825.16;;;0.41;98.12
24746;BME280;12845;52.042;6.838;2022-11-20T10:25:51;66841.63;;;0.51;97.31
24746;BME280;12845;52.042;6.838;2022-11-20T10:31:08;66849.91;;;0.63;97.17
24746;BME280;12845;52.042;6.838;2022-11-20T10:33:40;66867.16;;;0.77;96.64
24746;BME280;12845;52.042;6.838;2022-11-20T10:38:58;66889.66;;;0.97;96.40
24746;BME280;12845;52.042;6.838;2022-11-20T10:41:33;66903.34;;;1.12;96.06
24746;BME280;12845;52.042;6.838;2022-11-20T10:44:03;66914.63;;;1.22;96.13
24746;BME280;12845;52.042;6.838;2022-11-20T10:46:39;66930.38;;;1.37;96.02
24746;BME280;12845;52.042;6.838;2022-11-20T10:49:16;66946.13;;;1.51;95.78
24746;BME280;12845;52.042;6.838;2022-11-20T10:52:10;66960.41;;;1.59;94.62
24746;BME280;12845;52.042;6.838;2022-11-20T10:57:19;66961.72;;;1.63;95.21
24746;BME280;12845;52.042;6.838;2022-11-20T11:00:14;66972.78;;;1.70;94.78
24746;BME280;12845;52.042;6.838;2022-11-20T11:02:46;66964.72;;;1.68;95.36
24746;BME280;12845;52.042;6.838;2022-11-20T11:05:43;66971.84;;;1.72;95.80
24746;BME280;12845;52.042;6.838;2022-11-20T11:13:30;66979.94;;;1.82;96.15
24746;BME280;12845;52.042;6.838;2022-11-20T11:15:56;66985.94;;;1.85;96.06
24746;BME280;12845;52.042;6.838;2022-11-20T11:18:26;66986.13;;;1.87;95.71
24746;BME280;12845;52.042;6.838;2022-11-20T11:20:53;66986.13;;;1.87;95.94
24746;BME280;12845;52.042;6.838;2022-11-20T11:23:37;66990.63;;;1.91;95.94
24746;BME280;12845;52.042;6.838;2022-11-20T11:26:05;66998.50;;;1.98;96.14
24746;BME280;12845;52.042;6.838;2022-11-20T11:28:31;67006.75;;;2.03;95.67
24746;BME280;12845;52.042;6.838;2022-11-20T11:30:57;67004.13;;;2.03;94.49
24746;BME280;12845;52.042;6.838;2022-11-20T11:33:24;67011.28;;;2.08;95.07
24746;BME280;12845;52.042;6.838;2022-11-20T11:35:52;67014.25;;;2.13;94.71
24746;BME280;12845;52.042;6.838;2022-11-20T11:41:00;67030.97;;;2.25;94.79
24746;BME280;12845;52.042;6.838;2022-11-20T11:43:30;67034.00;;;2.31;94.46
24746;BME280;12845;52.042;6.838;2022-11-20T11:49:14;67041.88;;;2.38;93.83
24746;BME280;12845;52.042;6.838;2022-11-20T11:52:01;67045.81;;;2.41;94.39
24746;BME280;12845;52.042;6.838;2022-11-20T11:54:53;67047.69;;;2.38;94.33
24746;BME280;12845;52.042;6.838;2022-11-20T12:04:57;67052.97;;;2.53;93.39
24746;BME280;12845;52.042;6.838;2022-11-20T12:07:43;67045.25;;;2.41;93.71
24746;BME280;12845;52.042;6.838;2022-11-20T12:10:40;67039.06;;;2.35;93.75
24746;BME280;12845;52.042;6.838;2022-11-20T12:15:44;67017.66;;;2.16;95.25
24746;BME280;12845;52.042;6.838;2022-11-20T12:18:15;67021.59;;;2.19;95.41
24746;BME280;12845;52.042;6.838;2022-11-20T12:23:53;67034.00;;;2.31;96.02
24746;BME280;12845;52.042;6.838;2022-11-20T12:29:10;67045.25;;;2.41;95.68
24746;BME280;12845;52.042;6.838;2022-11-20T12:31:47;67054.81;;;2.49;96.27
24746;BME280;12845;52.042;6.838;2022-11-20T12:39:40;67062.72;;;2.57;94.56
24746;BME280;12845;52.042;6.838;2022-11-20T12:57:00;67065.56;;;2.59;95.00
24746;BME280;12845;52.042;6.838;2022-11-20T13:00:14;67068.38;;;2.62;95.86
24746;BME280;12845;52.042;6.838;2022-11-20T13:05:48;67061.03;;;2.55;95.77
24746;BME280;12845;52.042;6.838;2022-11-20T13:08:38;67057.47;;;2.57;96.24
24746;BME280;12845;52.042;6.838;2022-11-20T13:11:21;67066.47;;;2.58;96.26
24746;BME280;12845;52.042;6.838;2022-11-20T13:17:06;67060.47;;;2.55;95.81
24746;BME280;12845;52.042;6.838;2022-11-20T13:19:35;67059.72;;;2.52;95.38
24746;BME280;12845;52.042;6.838;2022-11-20T13:24:28;67053.72;;;2.48;95.19
24746;BME280;12845;52.042;6.838;2022-11-20T13:29:30;67049.19;;;2.44;95.87
24746;BME280;12845;52.042;6.838;2022-11-20T13:37:43;67045.63;;;2.39;95.90
24746;BME280;12845;52.042;6.838;2022-11-20T13:42:38;67036.81;;;2.33;96.60
24746;BME280;12845;52.042;6.838;2022-11-20T13:45:11;67040.56;;;2.34;97.29
24746;BME280;12845;52.042;6.838;2022-11-20T13:47:37;67037.94;;;2.34;96.85
24746;BME280;12845;52.042;6.838;2022-11-20T14:00:21;67036.81;;;2.33;97.21
24746;BME280;12845;52.042;6.838;2022-11-20T14:03:01;67041.31;;;2.37;97.73
24746;BME280;12845;52.042;6.838;2022-11-20T14:05:36;67040.19;;;2.36;97.92
24746;BME280;12845;52.042;6.838;2022-11-20T14:08:03;67036.81;;;2.33;97.91
24746;BME280;12845;52.042;6.838;2022-11-20T14:10:30;67031.19;;;2.28;98.75
24746;BME280;12845;52.042;6.838;2022-11-20T14:12:56;67033.41;;;2.30;99.41
24746;BME280;12845;52.042;6.838;2022-11-20T14:15:30;67030.03;;;2.27;100.00
24746;BME280;12845;52.042;6.838;2022-11-20T14:20:25;67033.06;;;2.25;100.00
24746;BME280;12845;52.042;6.838;2022-11-20T14:22:52;67024.41;;;2.22;100.00
24746;BME280;12845;52.042;6.838;2022-11-20T14:25:21;67021.03;;;2.19;100.00
24746;BME280;12845;52.042;6.838;2022-11-20T14:30:19;67008.66;;;2.08;100.00
24746;BME280;12845;52.042;6.838;2022-11-20T14:32:46;67008.06;;;2.07;100.00
24746;BME280;12845;52.042;6.838;2022-11-20T14:35:21;67007.50;;;2.07;100.00
24746;BME280;12845;52.042;6.838;2022-11-20T14:37:48;67005.28;;;2.05;100.00
24746;BME280;12845;52.042;6.838;2022-11-20T14:40:35;67000.75;;;2.00;100.00
24746;BME280;12845;52.042;6.838;2022-11-20T14:45:28;66998.88;;;2.03;100.00
24746;BME280;12845;52.042;6.838;2022-11-20T14:47:56;67000.75;;;2.00;100.00
24746;BME280;12845;52.042;6.838;2022-11-20T14:52:56;67004.31;;;1.99;100.00
24746;BME280;12845;52.042;6.838;2022-11-20T14:55:32;67000.19;;;2.00;100.00
24746;BME280;12845;52.042;6.838;2022-11-20T14:58:00;66998.88;;;1.96;100.00
24746;BME280;12845;52.042;6.838;2022-11-20T15:00:27;66993.81;;;1.99;100.00
24746;BME280;12845;52.042;6.838;2022-11-20T15:02:53;66998.88;;;1.96;100.00
24746;BME280;12845;52.042;6.838;2022-11-20T15:05:22;67001.50;;;1.96;100.00
24746;BME280;12845;52.042;6.838;2022-11-20T15:08:06;66997.19;;;1.95;100.00
24746;BME280;12845;52.042;6.838;2022-11-20T15:13:10;66993.25;;;1.91;100.00
24746;BME280;12845;52.042;6.838;2022-11-20T15:15:46;66992.13;;;1.90;100.00